createdAt,value
2022-11-20T10:35:47.279Z,47.00
2022-11-20T10:38:31.044Z,52.30
2022-11-20T10:41:21.396Z,53.35
2022-11-20T10:43:52.947Z,47.70
2022-11-20T10:46:23.672Z,47.90
2022-11-20T10:48:51.741Z,46.75
2022-11-20T10:51:42.846Z,43.40
2022-11-20T10:54:44.965Z,42.53
2022-11-20T10:57:25.314Z,42.00
2022-11-20T11:00:02.777Z,39.60
2022-11-20T11:02:40.211Z,37.63
2022-11-20T11:05:31.075Z,37.25
2022-11-20T11:08:00.206Z,38.65
2022-11-20T11:10:55.987Z,38.38
2022-11-20T11:13:28.571Z,37.80
2022-11-20T11:15:55.889Z,37.80
2022-11-20T11:18:28.296Z,39.83
2022-11-20T11:20:57.224Z,42.72
2022-11-20T11:23:39.299Z,43.83
2022-11-20T11:26:23.935Z,45.67
2022-11-20T11:29:02.204Z,57.03
2022-11-20T11:31:29.807Z,46.88
2022-11-20T11:34:13.346Z,40.80
2022-11-20T11:36:40.631Z,41.33
2022-11-20T11:39:15.418Z,48.58
2022-11-20T11:41:42.684Z,46.38
2022-11-20T11:44:59.887Z,41.67
2022-11-20T11:47:30.697Z,41.35
2022-11-20T11:50:09.486Z,45.70
2022-11-20T11:52:44.965Z,42.83
2022-11-20T11:55:26.417Z,45.28
2022-11-20T11:58:06.091Z,41.85
2022-11-20T12:00:35.306Z,35.40
2022-11-20T12:03:14.497Z,40.72
2022-11-20T12:05:48.181Z,40.88
2022-11-20T12:08:39.817Z,45.65
2022-11-20T12:11:21.003Z,44.40
2022-11-20T12:13:55.536Z,50.88
2022-11-20T12:16:22.572Z,47.03
2022-11-20T12:18:52.609Z,51.83
2022-11-20T12:21:25.502Z,48.13
2022-11-20T12:24:14.023Z,50.95
2022-11-20T12:27:14.494Z,51.13
2022-11-20T12:29:59.376Z,50.95
2022-11-20T12:32:53.203Z,55.42
2022-11-20T12:35:30.222Z,55.72
2022-11-20T12:38:24.356Z,58.22
2022-11-20T12:41:35.518Z,53.17
2022-11-20T12:44:58.163Z,58.40
2022-11-20T12:47:49.497Z,61.45
2022-11-20T12:50:29.285Z,55.15
2022-11-20T12:53:33.692Z,55.08
2022-11-20T12:56:12.387Z,53.38
2022-11-20T12:59:07.413Z,55.45
2022-11-20T13:01:51.336Z,57.00
2022-11-20T13:04:39.804Z,50.15
2022-11-20T13:07:14.317Z,55.58
2022-11-20T13:09:46.873Z,66.15
2022-11-20T13:12:25.304Z,59.70
2022-11-20T13:15:01.864Z,54.70
2022-11-20T13:18:03.561Z,61.65
2022-11-20T13:20:32.407Z,61.25
2022-11-20T13:22:59.899Z,58.85
2022-11-20T13:25:35.298Z,60.17
2022-11-20T13:28:06.064Z,56.38
2022-11-20T13:30:32.909Z,53.55
2022-11-20T13:33:02.234Z,57.10
2022-11-20T13:35:36.155Z,61.40
2022-11-20T13:38:08.598Z,53.53
2022-11-20T13:40:38.284Z,56.50
2022-11-20T13:43:36.241Z,51.47
2022-11-20T13:46:05.757Z,49.17
2022-11-20T13:48:45.484Z,49.80
2022-11-20T13:51:14.867Z,47.70
2022-11-20T13:58:55.739Z,49.15
2022-11-20T14:01:30.958Z,48.08
2022-11-20T14:04:06.591Z,52.10
2022-11-20T14:06:42.172Z,49.85
2022-11-20T14:09:13.947Z,48.78
2022-11-20T14:11:48.890Z,44.00
2022-11-20T14:14:22.169Z,43.50
2022-11-20T14:16:50.350Z,36.05
2022-11-20T14:19:31.342Z,39.92
2022-11-20T14:22:19.651Z,42.45
2022-11-20T14:24:47.195Z,33.60
2022-11-20T14:27:16.648Z,32.60
2022-11-20T14:32:11.657Z,34.60
2022-11-20T14:34:44.473Z,40.83
2022-11-20T14:37:21.033Z,38.70
2022-11-20T14:39:56.682Z,38.38
2022-11-20T14:42:25.842Z,39.25
2022-11-20T14:44:56.122Z,39.58
2022-11-20T14:47:26.943Z,35.58
2022-11-20T14:49:56.022Z,41.38
2022-11-20T14:52:25.067Z,44.15
2022-11-20T14:54:54.650Z,41.30
2022-11-20T14:57:30.201Z,42.53
2022-11-20T15:00:15.322Z,46.35
2022-11-20T15:02:47.741Z,41.55
2022-11-20T15:05:15.981Z,42.90
2022-11-20T15:07:46.933Z,50.53
